createdAt,value
2018-11-28T00:00:20.412Z,4.67
2018-11-28T00:02:49.810Z,5.00
2018-11-28T00:05:17.938Z,4.70
2018-11-28T00:07:46.060Z,4.25
2018-11-28T00:10:14.807Z,4.97
2018-11-28T00:12:42.929Z,4.70
2018-11-28T00:15:13.026Z,4.80
2018-11-28T00:17:41.111Z,5.05
2018-11-28T00:20:13.406Z,4.45
2018-11-28T00:22:41.659Z,5.57
2018-11-28T00:25:10.607Z,4.20
2018-11-28T00:27:38.755Z,3.87
2018-11-28T00:30:11.764Z,4.27
2018-11-28T00:32:39.872Z,4.20
2018-11-28T00:35:09.625Z,4.20
2018-11-28T00:37:37.757Z,4.77
2018-11-28T00:40:06.903Z,4.23
2018-11-28T00:42:35.004Z,4.70
2018-11-28T00:45:03.100Z,4.93
2018-11-28T00:47:31.192Z,5.65
2018-11-28T00:49:59.285Z,5.53
2018-11-28T00:52:27.390Z,5.70
2018-11-28T00:54:55.527Z,6.30
2018-11-28T00:57:23.617Z,8.00
2018-11-28T00:59:51.715Z,6.03
2018-11-28T01:02:19.827Z,5.43
2018-11-28T01:04:47.950Z,5.83
2018-11-28T01:07:16.075Z,6.60
2018-11-28T01:09:44.168Z,9.67
2018-11-28T01:12:12.257Z,9.87
2018-11-28T01:14:40.328Z,8.00
2018-11-28T01:17:08.426Z,7.10
2018-11-28T01:19:36.514Z,6.12
2018-11-28T01:22:04.685Z,10.00
2018-11-28T01:24:32.827Z,6.80
2018-11-28T01:27:01.010Z,7.87
2018-11-28T01:29:29.116Z,7.10
2018-11-28T01:31:57.191Z,7.00
2018-11-28T01:34:25.264Z,8.47
2018-11-28T01:36:53.339Z,9.50
2018-11-28T01:39:21.444Z,7.05
2018-11-28T01:41:49.539Z,12.63
2018-11-28T01:44:17.619Z,8.80
2018-11-28T01:46:45.732Z,11.27
2018-11-28T01:49:13.851Z,10.57
2018-11-28T01:51:41.986Z,8.70
2018-11-28T01:54:10.079Z,8.57
2018-11-28T01:56:38.746Z,10.95
2018-11-28T01:59:06.822Z,11.65
2018-11-28T02:01:34.881Z,9.18
2018-11-28T02:04:02.934Z,10.45
2018-11-28T02:06:30.989Z,10.20
2018-11-28T02:08:59.070Z,10.72
2018-11-28T02:11:27.122Z,9.75
2018-11-28T02:13:55.194Z,10.63
2018-11-28T02:16:23.255Z,10.03
2018-11-28T02:18:51.387Z,12.60
2018-11-28T02:21:19.415Z,12.13
2018-11-28T02:23:47.475Z,15.50
2018-11-28T02:26:15.542Z,11.97
2018-11-28T02:28:43.622Z,12.47
2018-11-28T02:31:11.690Z,13.55
2018-11-28T02:33:40.606Z,14.70
2018-11-28T02:36:15.293Z,15.43
2018-11-28T02:38:43.354Z,11.40
2018-11-28T02:41:11.443Z,15.57
2018-11-28T02:48:36.931Z,15.20
2018-11-28T02:51:05.850Z,13.37
2018-11-28T02:53:33.911Z,13.18
2018-11-28T02:56:01.992Z,12.00
2018-11-28T02:58:30.075Z,13.35
2018-11-28T03:00:58.157Z,12.03
2018-11-28T03:06:06.546Z,14.43
2018-11-28T03:08:34.640Z,11.60
2018-11-28T03:11:02.725Z,11.75
2018-11-28T03:13:30.800Z,12.90
2018-11-28T03:16:00.450Z,14.00
2018-11-28T03:18:28.827Z,12.73
2018-11-28T03:20:56.901Z,13.60
2018-11-28T03:23:24.961Z,13.03
2018-11-28T03:25:52.995Z,13.07
2018-11-28T03:28:21.069Z,13.10
2018-11-28T03:30:49.143Z,12.80
2018-11-28T03:33:17.195Z,11.10
2018-11-28T03:35:45.237Z,13.13
2018-11-28T03:38:13.309Z,13.13
2018-11-28T03:40:41.365Z,14.23
2018-11-28T03:43:09.429Z,14.93
2018-11-28T03:45:37.691Z,12.60
2018-11-28T03:48:05.894Z,12.05
2018-11-28T03:50:34.002Z,14.40
2018-11-28T03:53:02.078Z,11.73
2018-11-28T03:55:30.141Z,12.35
2018-11-28T03:57:58.407Z,10.70
2018-11-28T04:00:26.490Z,11.43
2018-11-28T04:02:54.574Z,11.75
2018-11-28T04:05:22.634Z,15.87
2018-11-28T04:07:50.694Z,16.30
2018-11-28T04:10:18.770Z,9.60
2018-11-28T04:12:46.862Z,10.67
2018-11-28T04:15:16.244Z,11.47
2018-11-28T04:17:44.291Z,10.80
2018-11-28T04:20:13.497Z,18.23
2018-11-28T04:22:41.568Z,11.70
2018-11-28T04:25:10.394Z,12.03
2018-11-28T04:27:38.485Z,12.60
2018-11-28T04:30:10.739Z,11.07
2018-11-28T04:32:38.808Z,13.37
2018-11-28T04:35:08.630Z,11.90
2018-11-28T04:37:36.704Z,9.97
2018-11-28T04:40:08.035Z,10.60
2018-11-28T04:42:36.223Z,13.37
2018-11-28T04:45:04.403Z,11.57
2018-11-28T04:47:32.463Z,13.98
2018-11-28T04:50:00.530Z,12.23
2018-11-28T04:52:28.606Z,12.55
2018-11-28T04:54:56.653Z,12.20
2018-11-28T04:57:24.756Z,10.57
2018-11-28T04:59:52.810Z,11.50
2018-11-28T05:02:20.951Z,11.50
2018-11-28T05:04:49.055Z,9.30
2018-11-28T05:07:31.951Z,10.77
2018-11-28T05:10:00.075Z,11.50
2018-11-28T05:12:28.130Z,11.10
2018-11-28T05:14:56.206Z,10.63
2018-11-28T05:17:25.055Z,11.18
2018-11-28T05:19:53.153Z,12.05
2018-11-28T05:22:21.258Z,12.53
2018-11-28T05:24:49.314Z,11.78
2018-11-28T05:27:17.382Z,12.88
2018-11-28T05:29:45.458Z,13.85
2018-11-28T05:32:13.497Z,12.50
2018-11-28T05:34:41.610Z,11.33
2018-11-28T05:37:09.718Z,11.18
2018-11-28T05:39:37.786Z,11.57
2018-11-28T05:42:05.930Z,9.63
2018-11-28T05:44:34.241Z,13.60
2018-11-28T05:47:02.414Z,10.65
2018-11-28T05:49:30.577Z,12.47
2018-11-28T05:51:58.723Z,12.93
2018-11-28T05:54:26.810Z,11.40
2018-11-28T05:56:54.898Z,15.15
2018-11-28T05:59:27.365Z,12.45
2018-11-28T06:01:51.101Z,10.57
2018-11-28T06:04:19.191Z,11.80
2018-11-28T06:06:47.281Z,11.43
2018-11-28T06:09:15.366Z,9.03
2018-11-28T06:11:43.449Z,11.97
2018-11-28T06:14:11.510Z,11.47
2018-11-28T06:16:39.570Z,12.33
2018-11-28T06:19:07.842Z,10.33
2018-11-28T06:21:35.928Z,12.00
2018-11-28T06:24:03.957Z,9.90
2018-11-28T06:26:32.042Z,11.07
2018-11-28T06:29:00.102Z,9.37
2018-11-28T06:31:28.165Z,11.03
2018-11-28T06:33:56.229Z,9.43
2018-11-28T06:36:24.312Z,9.40
2018-11-28T06:38:52.374Z,9.23
2018-11-28T06:41:20.461Z,10.77
2018-11-28T06:43:48.541Z,9.98
2018-11-28T06:46:16.621Z,9.47
2018-11-28T06:48:44.697Z,10.97
2018-11-28T06:51:12.777Z,9.00
2018-11-28T06:53:41.229Z,8.77
2018-11-28T06:56:09.293Z,9.53
2018-11-28T06:58:37.328Z,10.83
2018-11-28T07:01:06.137Z,8.80
2018-11-28T07:03:34.218Z,10.10
2018-11-28T07:06:02.326Z,10.63
2018-11-28T07:08:30.494Z,9.10
2018-11-28T07:10:58.572Z,8.80
2018-11-28T07:13:26.621Z,10.13
2018-11-28T07:15:54.693Z,9.68
2018-11-28T07:18:34.121Z,10.48
2018-11-28T07:21:02.194Z,10.00
2018-11-28T07:23:30.435Z,10.38
2018-11-28T07:25:58.498Z,9.03
2018-11-28T07:28:26.557Z,9.30
2018-11-28T07:30:54.613Z,11.45
2018-11-28T07:33:22.673Z,9.75
2018-11-28T07:35:50.792Z,8.17
2018-11-28T07:38:18.886Z,9.47
2018-11-28T07:40:46.936Z,12.47
2018-11-28T07:43:15.307Z,11.70
2018-11-28T07:45:47.990Z,10.53
2018-11-28T07:48:16.086Z,10.20
2018-11-28T07:50:44.219Z,10.30
2018-11-28T07:53:12.531Z,11.60
2018-11-28T07:55:40.623Z,9.20
2018-11-28T07:58:08.690Z,9.20
2018-11-28T08:00:37.281Z,9.90
2018-11-28T08:03:07.118Z,11.50
2018-11-28T08:05:36.106Z,10.00
2018-11-28T08:08:04.163Z,12.68
2018-11-28T08:10:32.258Z,9.90
2018-11-28T08:13:00.457Z,11.07
2018-11-28T08:15:28.517Z,9.13
2018-11-28T08:17:56.598Z,9.60
2018-11-28T08:20:24.671Z,9.00
2018-11-28T08:22:52.750Z,9.78
2018-11-28T08:25:20.810Z,9.83
2018-11-28T08:27:49.930Z,9.83
2018-11-28T08:30:21.983Z,9.93
2018-11-28T08:32:50.116Z,9.33
2018-11-28T08:35:18.249Z,9.15
2018-11-28T08:37:46.346Z,9.20
2018-11-28T08:40:15.502Z,12.43
2018-11-28T08:42:43.714Z,9.70
2018-11-28T08:45:14.055Z,9.10
2018-11-28T08:47:42.138Z,9.30
2018-11-28T08:50:14.599Z,9.93
2018-11-28T08:52:42.670Z,9.55
2018-11-28T08:55:12.065Z,9.97
2018-11-28T08:57:40.118Z,9.65
2018-11-28T09:00:12.015Z,9.70
2018-11-28T09:02:40.081Z,9.37
2018-11-28T09:05:09.009Z,7.87
2018-11-28T09:07:37.090Z,8.88
2018-11-28T09:10:07.341Z,7.87
2018-11-28T09:12:35.450Z,8.37
2018-11-28T09:15:03.533Z,10.13
2018-11-28T09:17:31.582Z,9.03
2018-11-28T09:19:59.642Z,9.00
2018-11-28T09:22:27.749Z,10.47
2018-11-28T09:24:55.830Z,11.57
2018-11-28T09:27:23.873Z,10.23
2018-11-28T09:29:51.910Z,10.13
2018-11-28T09:32:19.961Z,11.23
2018-11-28T09:34:48.037Z,9.70
2018-11-28T09:37:16.121Z,9.57
2018-11-28T09:39:44.195Z,12.30
2018-11-28T09:42:12.305Z,10.00
2018-11-28T09:44:40.357Z,11.27
2018-11-28T09:47:08.446Z,12.03
2018-11-28T09:49:36.495Z,11.90
2018-11-28T09:52:04.846Z,12.20
2018-11-28T09:54:32.902Z,10.77
2018-11-28T09:57:00.946Z,11.73
2018-11-28T09:59:29.099Z,15.20
2018-11-28T10:01:57.261Z,13.47
2018-11-28T10:04:25.339Z,17.27
2018-11-28T10:06:53.380Z,14.77
2018-11-28T10:09:21.458Z,14.80
2018-11-28T10:11:49.513Z,15.00
2018-11-28T10:14:17.601Z,16.67
2018-11-28T10:16:46.227Z,18.40
2018-11-28T10:19:13.754Z,20.60
2018-11-28T10:21:41.793Z,19.50
2018-11-28T10:24:09.871Z,17.93
2018-11-28T10:26:37.913Z,20.60
2018-11-28T10:29:06.317Z,20.87
2018-11-28T10:31:34.474Z,24.67
2018-11-28T10:34:02.538Z,18.50
2018-11-28T10:36:30.596Z,22.73
2018-11-28T10:38:58.681Z,22.80
2018-11-28T10:41:26.795Z,22.33
2018-11-28T10:43:54.878Z,23.12
2018-11-28T10:46:22.951Z,21.82
2018-11-28T10:48:51.061Z,23.07
2018-11-28T10:51:19.114Z,24.00
2018-11-28T10:53:47.169Z,26.48
2018-11-28T10:56:15.242Z,27.27
2018-11-28T10:58:43.371Z,25.88
2018-11-28T11:01:16.731Z,28.00
2018-11-28T11:03:50.066Z,25.30
2018-11-28T11:06:23.434Z,25.37
2018-11-28T11:08:56.947Z,31.07
2018-11-28T11:11:25.994Z,26.52
2018-11-28T11:13:59.573Z,29.53
2018-11-28T11:16:29.659Z,30.90
2018-11-28T11:18:58.401Z,32.60
2018-11-28T11:21:27.006Z,27.27
2018-11-28T11:23:55.072Z,32.63
2018-11-28T11:26:23.179Z,29.10
2018-11-28T11:28:51.309Z,32.97
2018-11-28T11:31:19.362Z,35.10
2018-11-28T11:33:47.457Z,27.77
2018-11-28T11:36:15.558Z,32.40
2018-11-28T11:38:43.636Z,25.40
2018-11-28T11:41:11.751Z,33.97
2018-11-28T11:43:40.580Z,33.02
2018-11-28T11:46:08.642Z,32.70
2018-11-28T11:48:36.754Z,29.00
2018-11-28T11:51:04.869Z,31.80
2018-11-28T11:53:32.982Z,32.57
2018-11-28T11:56:01.130Z,31.23
2018-11-28T11:58:29.201Z,33.90
2018-11-28T12:00:57.250Z,31.20
2018-11-28T12:03:25.302Z,27.87
2018-11-28T12:05:56.718Z,29.87
2018-11-28T12:08:25.803Z,32.97
2018-11-28T12:10:53.894Z,31.37
2018-11-28T12:13:21.983Z,31.00
2018-11-28T12:15:50.942Z,26.35
2018-11-28T12:18:19.028Z,31.85
2018-11-28T12:20:55.291Z,30.45
2018-11-28T12:23:23.651Z,29.63
2018-11-28T12:25:51.773Z,32.23
2018-11-28T12:28:19.864Z,31.40
2018-11-28T12:30:47.913Z,32.27
2018-11-28T12:33:15.967Z,33.67
2018-11-28T12:35:44.023Z,32.53
2018-11-28T12:38:12.143Z,28.80
2018-11-28T12:40:40.219Z,35.37
2018-11-28T12:43:09.287Z,34.00
2018-11-28T12:45:39.443Z,31.33
2018-11-28T12:48:07.516Z,31.40
2018-11-28T12:50:35.578Z,30.27
2018-11-28T12:53:03.755Z,31.23
2018-11-28T12:55:33.573Z,32.83
2018-11-28T12:58:01.658Z,31.10
2018-11-28T13:00:31.238Z,28.13
2018-11-28T13:02:59.302Z,31.80
2018-11-28T13:05:27.567Z,33.80
2018-11-28T13:07:55.861Z,29.67
2018-11-28T13:10:29.486Z,31.50
2018-11-28T13:12:57.585Z,29.87
2018-11-28T13:15:26.385Z,28.80
2018-11-28T13:17:54.448Z,31.30
2018-11-28T13:20:22.647Z,31.68
2018-11-28T13:22:51.845Z,27.55
2018-11-28T13:25:21.349Z,29.03
2018-11-28T13:27:49.426Z,28.00
2018-11-28T13:30:20.253Z,31.10
2018-11-28T13:32:48.963Z,28.12
2018-11-28T13:35:19.870Z,31.43
2018-11-28T13:37:49.822Z,27.87
2018-11-28T13:40:18.582Z,29.27
2018-11-28T13:42:46.661Z,31.50
2018-11-28T13:45:17.817Z,26.60
2018-11-28T13:47:47.407Z,29.65
2018-11-28T13:50:15.481Z,32.70
2018-11-28T13:52:43.587Z,31.27
2018-11-28T13:56:58.430Z,30.23
2018-11-28T13:58:47.142Z,29.40
2018-11-28T14:01:15.398Z,32.28
2018-11-28T14:03:44.018Z,26.57
2018-11-28T14:06:12.113Z,33.03
2018-11-28T14:08:40.489Z,35.40
2018-11-28T14:11:08.633Z,28.10
2018-11-28T14:13:36.849Z,27.60
2018-11-28T14:16:05.274Z,29.43
2018-11-28T14:18:33.362Z,30.30
2018-11-28T14:21:01.458Z,29.92
2018-11-28T14:23:29.593Z,26.93
2018-11-28T14:25:57.651Z,29.90
2018-11-28T14:28:25.767Z,29.92
2018-11-28T14:30:53.856Z,26.90
2018-11-28T14:33:21.954Z,27.13
2018-11-28T14:35:51.116Z,30.03
2018-11-28T14:38:19.670Z,25.90
2018-11-28T14:40:47.742Z,29.90
2018-11-28T14:43:16.000Z,25.77
2018-11-28T14:45:44.101Z,28.20
2018-11-28T14:48:13.026Z,26.85
2018-11-28T14:50:41.105Z,37.23
2018-11-28T14:53:09.245Z,29.05
2018-11-28T14:55:38.924Z,27.70
2018-11-28T14:58:08.694Z,33.02
2018-11-28T15:00:36.833Z,30.80
2018-11-28T15:03:22.958Z,29.70
2018-11-28T15:06:00.353Z,28.93
2018-11-28T15:08:29.011Z,28.30
2018-11-28T15:10:59.389Z,31.27
2018-11-28T15:13:27.490Z,33.80
2018-11-28T15:15:55.541Z,28.57
2018-11-28T15:18:23.593Z,32.67
2018-11-28T15:20:51.665Z,30.72
2018-11-28T15:23:19.714Z,29.45
2018-11-28T15:25:47.769Z,31.93
2018-11-28T15:28:15.857Z,32.07
2018-11-28T15:30:43.967Z,30.63
2018-11-28T15:33:12.050Z,31.47
2018-11-28T15:35:40.359Z,29.87
2018-11-28T15:38:08.808Z,37.63
2018-11-28T15:40:36.925Z,27.37
2018-11-28T15:43:04.967Z,33.77
2018-11-28T15:45:33.026Z,31.73
2018-11-28T15:48:01.159Z,35.68
2018-11-28T15:50:29.221Z,35.85
2018-11-28T15:52:57.262Z,35.95
2018-11-28T15:55:25.358Z,32.42
2018-11-28T15:57:53.437Z,32.70
2018-11-28T16:00:22.453Z,38.57
2018-11-28T16:02:50.392Z,35.60
2018-11-28T16:05:18.492Z,23.83
2018-11-28T16:07:46.565Z,33.90
2018-11-28T16:10:20.427Z,40.90
2018-11-28T16:12:48.882Z,37.40
2018-11-28T16:15:22.721Z,34.88
2018-11-28T16:17:50.781Z,33.78
2018-11-28T16:20:18.843Z,32.23
2018-11-28T16:22:46.901Z,35.28
2018-11-28T16:25:14.953Z,35.35
2018-11-28T16:27:43.072Z,34.63
2018-11-28T16:30:12.514Z,29.57
2018-11-28T16:32:40.854Z,29.00
2018-11-28T16:35:11.310Z,36.43
2018-11-28T16:37:39.488Z,36.13
2018-11-28T16:40:10.898Z,34.80
2018-11-28T16:42:39.006Z,36.33
2018-11-28T16:45:17.002Z,29.10
2018-11-28T16:47:45.098Z,33.53
2018-11-28T16:50:13.961Z,40.23
2018-11-28T16:52:42.074Z,34.17
2018-11-28T16:55:13.105Z,36.50
2018-11-28T16:57:42.194Z,31.97
2018-11-28T17:00:12.566Z,32.60
2018-11-28T17:02:40.640Z,34.50
2018-11-28T17:05:11.565Z,28.63
2018-11-28T17:07:39.850Z,32.33
2018-11-28T17:10:13.434Z,33.70
2018-11-28T17:12:41.494Z,33.53
2018-11-28T17:15:13.507Z,30.27
2018-11-28T17:17:41.585Z,30.08
2018-11-28T17:20:14.670Z,29.70
2018-11-28T17:22:43.015Z,33.25
2018-11-28T17:25:27.897Z,31.57
2018-11-28T17:27:55.948Z,29.48
2018-11-28T17:30:25.093Z,31.42
2018-11-28T17:32:53.145Z,31.17
2018-11-28T17:35:21.209Z,32.10
2018-11-28T17:37:49.367Z,30.08
2018-11-28T17:40:21.458Z,28.67
2018-11-28T17:42:50.686Z,32.77
2018-11-28T17:45:19.069Z,29.73
2018-11-28T17:47:47.142Z,33.67
2018-11-28T17:50:16.322Z,29.95
2018-11-28T17:52:48.209Z,29.33
2018-11-28T17:55:17.202Z,32.50
2018-11-28T17:57:45.249Z,30.70
2018-11-28T18:00:14.582Z,32.07
2018-11-28T18:02:42.635Z,30.87
2018-11-28T18:05:11.091Z,24.73
2018-11-28T18:07:39.143Z,29.05
2018-11-28T18:10:16.320Z,30.40
2018-11-28T18:12:55.921Z,26.33
2018-11-28T18:15:24.160Z,29.30
2018-11-28T18:17:53.517Z,29.73
2018-11-28T18:20:21.614Z,32.13
2018-11-28T18:22:49.701Z,26.13
2018-11-28T18:25:17.873Z,31.55
2018-11-28T18:27:45.940Z,31.70
2018-11-28T18:30:13.971Z,29.60
2018-11-28T18:32:42.018Z,30.93
2018-11-28T18:35:10.986Z,29.03
2018-11-28T18:37:39.035Z,28.23
2018-11-28T18:40:10.102Z,32.43
2018-11-28T18:42:38.297Z,28.70
2018-11-28T18:45:11.374Z,26.77
2018-11-28T18:47:40.138Z,29.60
2018-11-28T18:50:09.569Z,27.55
2018-11-28T18:52:37.660Z,26.75
2018-11-28T18:55:08.181Z,33.13
2018-11-28T18:57:36.291Z,26.05
2018-11-28T19:00:04.909Z,31.50
2018-11-28T19:02:32.961Z,28.63
2018-11-28T19:05:01.027Z,30.80
2018-11-28T19:07:29.117Z,30.63
2018-11-28T19:09:57.170Z,28.47
2018-11-28T19:12:25.229Z,29.07
2018-11-28T19:14:53.303Z,26.30
2018-11-28T19:17:21.378Z,30.43
2018-11-28T19:19:49.436Z,33.23
2018-11-28T19:22:17.502Z,27.62
2018-11-28T19:24:45.690Z,32.00
2018-11-28T19:27:13.774Z,29.07
2018-11-28T19:29:41.850Z,26.12
2018-11-28T19:32:10.018Z,27.60
2018-11-28T19:34:38.082Z,33.30
2018-11-28T19:37:06.394Z,30.52
2018-11-28T19:39:34.458Z,32.70
2018-11-28T19:42:02.568Z,28.20
2018-11-28T19:44:30.623Z,28.67
2018-11-28T19:46:58.681Z,27.13
2018-11-28T19:49:26.745Z,29.52
2018-11-28T19:51:54.853Z,29.37
2018-11-28T19:54:22.910Z,31.40
2018-11-28T19:56:50.979Z,29.53
2018-11-28T19:59:19.067Z,31.17
2018-11-28T20:01:47.137Z,32.57
2018-11-28T20:04:15.202Z,29.20
2018-11-28T20:06:43.304Z,30.10
2018-11-28T20:09:17.206Z,26.37
2018-11-28T20:11:45.384Z,24.43
2018-11-28T20:14:13.494Z,29.30
2018-11-28T20:16:41.682Z,27.20
2018-11-28T20:19:09.783Z,28.37
2018-11-28T20:21:37.841Z,26.70
2018-11-28T20:24:06.721Z,33.40
2018-11-28T20:26:34.794Z,28.47
2018-11-28T20:29:02.846Z,29.20
2018-11-28T20:31:30.910Z,32.30
2018-11-28T20:33:59.014Z,33.75
2018-11-28T20:36:27.092Z,29.83
2018-11-28T20:38:55.577Z,30.52
2018-11-28T20:41:23.630Z,29.50
2018-11-28T20:43:52.549Z,32.23
2018-11-28T20:46:19.784Z,28.57
2018-11-28T20:48:47.870Z,31.57
2018-11-28T20:51:15.948Z,29.77
2018-11-28T20:53:44.882Z,33.55
2018-11-28T20:56:12.972Z,28.60
2018-11-28T20:58:41.044Z,27.13
2018-11-28T21:01:09.098Z,34.67
2018-11-28T21:03:37.191Z,35.30
2018-11-28T21:06:05.891Z,26.73
2018-11-28T21:08:33.957Z,28.33
2018-11-28T21:11:01.997Z,33.83
2018-11-28T21:13:30.038Z,29.42
2018-11-28T21:15:58.182Z,30.00
2018-11-28T21:18:26.272Z,30.07
2018-11-28T21:20:54.321Z,30.67
2018-11-28T21:23:22.356Z,26.90
2018-11-28T21:25:50.442Z,32.20
2018-11-28T21:28:18.566Z,29.93
2018-11-28T21:30:46.610Z,30.83
2018-11-28T21:33:15.266Z,29.70
2018-11-28T21:35:49.090Z,33.40
2018-11-28T21:38:17.137Z,29.15
2018-11-28T21:40:45.257Z,32.47
2018-11-28T21:43:13.344Z,28.67
2018-11-28T21:45:41.401Z,29.63
2018-11-28T21:48:09.484Z,28.40
2018-11-28T21:50:37.570Z,32.43
2018-11-28T21:53:07.326Z,29.63
2018-11-28T21:55:35.382Z,29.13
2018-11-28T21:58:03.457Z,31.03
2018-11-28T22:00:31.550Z,27.10
2018-11-28T22:02:59.647Z,33.37
2018-11-28T22:05:27.724Z,34.30
2018-11-28T22:07:55.782Z,30.73
2018-11-28T22:10:24.782Z,26.62
2018-11-28T22:12:53.379Z,30.32
2018-11-28T22:15:21.469Z,28.43
2018-11-28T22:17:50.564Z,26.03
2018-11-28T22:20:18.679Z,30.83
2018-11-28T22:22:46.736Z,28.03
2018-11-28T22:25:18.891Z,24.63
2018-11-28T22:27:46.949Z,25.45
2018-11-28T22:30:16.058Z,29.48
2018-11-28T22:32:44.174Z,28.65
2018-11-28T22:35:12.297Z,28.60
2018-11-28T22:37:40.338Z,24.90
2018-11-28T22:40:09.898Z,28.70
2018-11-28T22:42:37.993Z,29.97
2018-11-28T22:45:09.313Z,28.80
2018-11-28T22:47:37.378Z,30.33
2018-11-28T22:50:05.781Z,31.80
2018-11-28T22:52:33.854Z,31.30
2018-11-28T22:55:01.946Z,26.37
2018-11-28T22:57:30.008Z,26.77
2018-11-28T22:59:58.073Z,34.87
2018-11-28T23:02:58.619Z,26.90
2018-11-28T23:05:30.692Z,29.32
2018-11-28T23:07:59.801Z,25.65
2018-11-28T23:10:27.875Z,29.87
2018-11-28T23:12:55.967Z,30.67
2018-11-28T23:15:24.062Z,27.63
2018-11-28T23:17:55.162Z,26.87
2018-11-28T23:20:20.213Z,30.73
2018-11-28T23:22:48.289Z,26.23
2018-11-28T23:25:16.357Z,27.70
2018-11-28T23:27:44.407Z,28.47
2018-11-28T23:30:14.674Z,27.10
2018-11-28T23:32:42.769Z,29.63
2018-11-28T23:35:11.519Z,25.80
2018-11-28T23:37:40.493Z,29.80
2018-11-28T23:40:11.954Z,32.20
2018-11-28T23:42:40.014Z,28.60
2018-11-28T23:45:09.622Z,30.82
2018-11-28T23:47:37.701Z,29.12
2018-11-28T23:50:12.001Z,28.10
2018-11-28T23:52:40.085Z,28.90
2018-11-28T23:55:12.165Z,28.42
2018-11-28T23:57:40.237Z,28.38
